sensor_id;sensor_type;location;lat;lon;timestamp;temperature;humidity
57719;DHT22;43561;50.090;18.522;2022-08-19T00:02:11;22.50;99.90
57719;DHT22;43561;50.090;18.522;2022-08-19T00:12:13;22.40;99.90
57719;DHT22;43561;50.090;18.522;2022-08-19T00:22:15;22.30;99.90
57719;DHT22;43561;50.090;18.522;2022-08-19T00:32:18;22.20;99.90
57719;DHT22;43561;50.090;18.522;2022-08-19T00:42:21;22.10;99.90
57719;DHT22;43561;50.090;18.522;2022-08-19T00:52:27;21.90;99.90
57719;DHT22;43561;50.090;18.522;2022-08-19T01:02:32;21.80;99.90
57719;DHT22;43561;50.090;18.522;2022-08-19T01:12:34;21.70;99.90
57719;DHT22;43561;50.090;18.522;2022-08-19T01:43:40;21.40;99.90
57719;DHT22;43561;50.090;18.522;2022-08-19T01:54:13;21.40;99.90
57719;DHT22;43561;50.090;18.522;2022-08-19T02:04:30;21.40;99.90
57719;DHT22;43561;50.090;18.522;2022-08-19T02:14:34;21.30;99.90
57719;DHT22;43561;50.090;18.522;2022-08-19T02:24:36;21.20;99.90
57719;DHT22;43561;50.090;18.522;2022-08-19T02:34:39;21.20;99.90
57719;DHT22;43561;50.090;18.522;2022-08-19T02:44:42;21.10;99.90
57719;DHT22;43561;50.090;18.522;2022-08-19T02:54:49;21.10;99.90
57719;DHT22;43561;50.090;18.522;2022-08-19T03:04:52;21.00;99.90
57719;DHT22;43561;50.090;18.522;2022-08-19T03:14:54;20.90;99.90
57719;DHT22;43561;50.090;18.522;2022-08-19T03:24:57;20.90;99.90
57719;DHT22;43561;50.090;18.522;2022-08-19T03:34:59;20.80;99.90
57719;DHT22;43561;50.090;18.522;2022-08-19T03:45:02;20.90;99.90
57719;DHT22;43561;50.090;18.522;2022-08-19T03:55:04;20.90;99.90
57719;DHT22;43561;50.090;18.522;2022-08-19T04:05:07;20.70;99.90
57719;DHT22;43561;50.090;18.522;2022-08-19T04:15:09;20.80;99.90
57719;DHT22;43561;50.090;18.522;2022-08-19T04:25:12;20.90;99.90
57719;DHT22;43561;50.090;18.522;2022-08-19T04:35:14;21.10;99.90
57719;DHT22;43561;50.090;18.522;2022-08-19T04:45:20;21.20;99.90
57719;DHT22;43561;50.090;18.522;2022-08-19T04:55:24;21.30;99.90
57719;DHT22;43561;50.090;18.522;2022-08-19T05:05:26;21.50;99.90
57719;DHT22;43561;50.090;18.522;2022-08-19T05:15:28;22.10;99.90
57719;DHT22;43561;50.090;18.522;2022-08-19T05:25:30;22.40;99.90
57719;DHT22;43561;50.090;18.522;2022-08-19T05:35:32;23.00;99.90
57719;DHT22;43561;50.090;18.522;2022-08-19T05:45:39;23.40;99.90
57719;DHT22;43561;50.090;18.522;2022-08-19T05:55:41;23.90;99.90
57719;DHT22;43561;50.090;18.522;2022-08-19T06:05:44;24.80;99.90
57719;DHT22;43561;50.090;18.522;2022-08-19T06:15:52;25.40;99.80
57719;DHT22;43561;50.090;18.522;2022-08-19T06:25:54;26.00;97.80
57719;DHT22;43561;50.090;18.522;2022-08-19T06:35:56;26.90;95.40
57719;DHT22;43561;50.090;18.522;2022-08-19T06:45:59;27.90;93.30
57719;DHT22;43561;50.090;18.522;2022-08-19T06:56:02;28.80;90.60
57719;DHT22;43561;50.090;18.522;2022-08-19T07:06:10;28.90;86.80
57719;DHT22;43561;50.090;18.522;2022-08-19T07:16:32;30.20;82.00
57719;DHT22;43561;50.090;18.522;2022-08-19T07:26:39;30.40;77.10
57719;DHT22;43561;50.090;18.522;2022-08-19T07:36:43;31.00;73.40
57719;DHT22;43561;50.090;18.522;2022-08-19T07:46:49;30.20;72.30
57719;DHT22;43561;50.090;18.522;2022-08-19T07:56:54;29.70;72.60
57719;DHT22;43561;50.090;18.522;2022-08-19T08:06:56;29.60;74.30
57719;DHT22;43561;50.090;18.522;2022-08-19T08:16:58;29.60;76.20
57719;DHT22;43561;50.090;18.522;2022-08-19T08:27:01;30.30;74.20
57719;DHT22;43561;50.090;18.522;2022-08-19T08:37:11;31.20;72.40
57719;DHT22;43561;50.090;18.522;2022-08-19T08:47:18;31.40;69.20
57719;DHT22;43561;50.090;18.522;2022-08-19T08:57:27;30.90;69.90
57719;DHT22;43561;50.090;18.522;2022-08-19T09:18:00;31.10;70.40
57719;DHT22;43561;50.090;18.522;2022-08-19T09:28:02;31.70;66.70
57719;DHT22;43561;50.090;18.522;2022-08-19T09:38:23;32.10;65.60
57719;DHT22;43561;50.090;18.522;2022-08-19T09:48:26;32.70;67.40
57719;DHT22;43561;50.090;18.522;2022-08-19T09:58:28;33.20;64.20
57719;DHT22;43561;50.090;18.522;2022-08-19T10:08:33;33.50;62.50
57719;DHT22;43561;50.090;18.522;2022-08-19T10:18:37;34.10;62.30
57719;DHT22;43561;50.090;18.522;2022-08-19T10:28:44;33.60;60.70
57719;DHT22;43561;50.090;18.522;2022-08-19T10:38:50;33.80;60.30
57719;DHT22;43561;50.090;18.522;2022-08-19T10:48:58;33.20;59.10
57719;DHT22;43561;50.090;18.522;2022-08-19T10:59:01;33.80;58.50
57719;DHT22;43561;50.090;18.522;2022-08-19T11:09:04;33.40;57.90
57719;DHT22;43561;50.090;18.522;2022-08-19T11:19:08;33.70;57.10
57719;DHT22;43561;50.090;18.522;2022-08-19T11:29:12;33.20;57.60
57719;DHT22;43561;50.090;18.522;2022-08-19T11:39:16;32.90;58.80
57719;DHT22;43561;50.090;18.522;2022-08-19T11:49:19;33.00;58.60
57719;DHT22;43561;50.090;18.522;2022-08-19T11:59:22;32.80;58.00
57719;DHT22;43561;50.090;18.522;2022-08-19T12:09:24;31.80;60.40
57719;DHT22;43561;50.090;18.522;2022-08-19T12:19:26;32.20;60.10
57719;DHT22;43561;50.090;18.522;2022-08-19T12:29:28;32.70;59.80
57719;DHT22;43561;50.090;18.522;2022-08-19T12:39:33;32.80;58.80
57719;DHT22;43561;50.090;18.522;2022-08-19T12:49:36;32.60;60.20
57719;DHT22;43561;50.090;18.522;2022-08-19T12:59:59;32.60;59.50
57719;DHT22;43561;50.090;18.522;2022-08-19T13:10:02;32.50;59.30
57719;DHT22;43561;50.090;18.522;2022-08-19T13:20:05;32.90;58.90
57719;DHT22;43561;50.090;18.522;2022-08-19T13:30:10;32.70;59.60
57719;DHT22;43561;50.090;18.522;2022-08-19T13:40:15;33.20;59.80
57719;DHT22;43561;50.090;18.522;2022-08-19T13:50:21;32.90;59.60
57719;DHT22;43561;50.090;18.522;2022-08-19T14:00:25;32.50;58.70
57719;DHT22;43561;50.090;18.522;2022-08-19T14:10:31;32.90;58.20
57719;DHT22;43561;50.090;18.522;2022-08-19T14:20:36;32.90;58.70
57719;DHT22;43561;50.090;18.522;2022-08-19T14:30:39;32.60;59.40
57719;DHT22;43561;50.090;18.522;2022-08-19T14:40:43;32.70;58.80
57719;DHT22;43561;50.090;18.522;2022-08-19T14:50:46;32.40;58.70
57719;DHT22;43561;50.090;18.522;2022-08-19T15:00:49;32.20;58.90
57719;DHT22;43561;50.090;18.522;2022-08-19T15:11:22;32.10;58.10
57719;DHT22;43561;50.090;18.522;2022-08-19T15:21:32;32.00;57.70
57719;DHT22;43561;50.090;18.522;2022-08-19T15:31:35;31.80;58.90
57719;DHT22;43561;50.090;18.522;2022-08-19T15:41:39;31.70;59.60
57719;DHT22;43561;50.090;18.522;2022-08-19T15:51:45;31.40;60.00
57719;DHT22;43561;50.090;18.522;2022-08-19T16:01:53;28.50;81.80
57719;DHT22;43561;50.090;18.522;2022-08-19T16:12:07;25.60;99.80
57719;DHT22;43561;50.090;18.522;2022-08-19T16:22:09;24.60;99.90
57719;DHT22;43561;50.090;18.522;2022-08-19T16:32:11;23.60;99.90
57719;DHT22;43561;50.090;18.522;2022-08-19T16:42:30;22.40;99.90
57719;DHT22;43561;50.090;18.522;2022-08-19T16:52:32;23.00;99.90
57719;DHT22;43561;50.090;18.522;2022-08-19T17:02:35;23.40;99.90
57719;DHT22;43561;50.090;18.522;2022-08-19T17:12:37;21.80;99.90
57719;DHT22;43561;50.090;18.522;2022-08-19T17:22:38;21.70;99.90
57719;DHT22;43561;50.090;18.522;2022-08-19T17:32:40;21.20;99.90
57719;DHT22;43561;50.090;18.522;2022-08-19T17:42:43;21.70;99.90
57719;DHT22;43561;50.090;18.522;2022-08-19T17:52:45;21.30;99.90
57719;DHT22;43561;50.090;18.522;2022-08-19T18:02:53;21.10;99.90
57719;DHT22;43561;50.090;18.522;2022-08-19T18:12:55;21.40;99.90
57719;DHT22;43561;50.090;18.522;2022-08-19T18:22:57;21.10;99.90
57719;DHT22;43561;50.090;18.522;2022-08-19T18:33:22;21.40;99.90
57719;DHT22;43561;50.090;18.522;2022-08-19T18:43:24;21.70;99.90
57719;DHT22;43561;50.090;18.522;2022-08-19T18:53:30;21.50;99.90
57719;DHT22;43561;50.090;18.522;2022-08-19T19:03:33;21.50;99.90
57719;DHT22;43561;50.090;18.522;2022-08-19T19:13:38;21.50;99.90
57719;DHT22;43561;50.090;18.522;2022-08-19T19:23:40;21.50;99.90
57719;DHT22;43561;50.090;18.522;2022-08-19T19:33:43;21.20;99.90
57719;DHT22;43561;50.090;18.522;2022-08-19T19:43:45;21.20;99.90
57719;DHT22;43561;50.090;18.522;2022-08-19T19:53:47;21.10;99.90
57719;DHT22;43561;50.090;18.522;2022-08-19T21:11:11;20.80;99.90
57719;DHT22;43561;50.090;18.522;2022-08-19T21:21:26;20.70;99.90
57719;DHT22;43561;50.090;18.522;2022-08-19T21:31:28;20.80;99.90
57719;DHT22;43561;50.090;18.522;2022-08-19T21:41:30;21.00;99.90
57719;DHT22;43561;50.090;18.522;2022-08-19T21:51:32;20.90;99.90
57719;DHT22;43561;50.090;18.522;2022-08-19T22:01:34;20.90;99.90
57719;DHT22;43561;50.090;18.522;2022-08-19T22:11:38;20.90;99.90
57719;DHT22;43561;50.090;18.522;2022-08-19T22:21:40;20.80;99.90
57719;DHT22;43561;50.090;18.522;2022-08-19T22:31:43;20.70;99.90
57719;DHT22;43561;50.090;18.522;2022-08-19T22:41:45;20.80;99.90
57719;DHT22;43561;50.090;18.522;2022-08-19T22:51:47;20.60;99.90
57719;DHT22;43561;50.090;18.522;2022-08-19T23:01:49;20.60;99.90
57719;DHT22;43561;50.090;18.522;2022-08-19T23:11:51;20.40;99.90
57719;DHT22;43561;50.090;18.522;2022-08-19T23:21:53;20.30;99.90
57719;DHT22;43561;50.090;18.522;2022-08-19T23:31:56;20.20;99.90
57719;DHT22;43561;50.090;18.522;2022-08-19T23:41:57;20.10;99.90
57719;DHT22;43561;50.090;18.522;2022-08-19T23:51:59;20.00;99.90
